Startpagina
METAR-TAF:

METAR-TAF

Vliegvelden :

Kilimanjaro International Airport

Kilimanjaro, Tanzania

breedte: 03-25S, lengte: 037-04E, hoogte: 891 m

Actueel weer

Dit bericht is 1 uur en het 21 minuten geleden gemaakt, om 19:00 UTC
Weinig wind
Temperatuur 19°C
Vochtigheid 88%
Druk 1021 hPa
Zicht 10 km of meer
Weinig wolken op 2400 ft

METAR: HTKJ 031900Z 00000KT 9999 FEW024 19/17 Q1021 NOSIG

Tijdstip: 23:21 (20:21 UTC)

Verwachting

Dit bericht is 3 uur en het 21 minuten geleden gemaakt, om 17:00 UTC
Verwachting geldig van 03 om 18 UTC tot 04 om 18 UTC
Wind 5 kt uit het oosten
Zicht 10 km of meer
Verspreide wolken op 2400 ft
Wijzigt naar
van 03 om 23 UTC tot 04 om 01 UTC
Gebroken wolken op 2200 ft

TAF: HTKJ 031700Z 0318/0418 09005KT 9999 SCT024 BECMG 0323/0401 BKN022

Waarnemingen en weersverwachtingen van meer dan 4000 vliegvelden (METAR en TAF).

De beschikbare stations zijn de gele en rode punten op de kaart.

Ga met uw muis naar het station om de naam te zien.

Klik dan om waarnemingen en weersverwachtingen te zien.

kaart wijzigen: klik op de groene knoppen met een zwart kruis om in te zoomen, op de groene knop met een streepje om uit te zoomen of op de groene pijlen voor aangrenzende kaarten.


METAR-TAF: